sensor_id;sensor_type;location;lat;lon;timestamp;P1;durP1;ratioP1;P2;durP2;ratioP2
55254;SDS011;41118;44.634;11.182;2023-01-20T00:01:13;11.63;;;2.95;;
55254;SDS011;41118;44.634;11.182;2023-01-20T00:03:40;3.58;;;0.82;;
55254;SDS011;41118;44.634;11.182;2023-01-20T00:06:07;5.70;;;2.25;;
55254;SDS011;41118;44.634;11.182;2023-01-20T00:08:33;7.93;;;1.73;;
55254;SDS011;41118;44.634;11.182;2023-01-20T00:11:02;8.52;;;2.65;;
55254;SDS011;41118;44.634;11.182;2023-01-20T00:13:29;9.95;;;2.30;;
55254;SDS011;41118;44.634;11.182;2023-01-20T00:15:55;8.95;;;3.05;;
55254;SDS011;41118;44.634;11.182;2023-01-20T00:18:21;9.90;;;2.75;;
55254;SDS011;41118;44.634;11.182;2023-01-20T00:20:47;7.22;;;2.05;;
55254;SDS011;41118;44.634;11.182;2023-01-20T00:23:13;6.65;;;2.65;;
55254;SDS011;41118;44.634;11.182;2023-01-20T00:25:40;4.10;;;0.95;;
55254;SDS011;41118;44.634;11.182;2023-01-20T00:28:06;4.82;;;1.83;;
55254;SDS011;41118;44.634;11.182;2023-01-20T00:30:32;2.45;;;1.13;;
55254;SDS011;41118;44.634;11.182;2023-01-20T00:32:58;4.60;;;1.35;;
55254;SDS011;41118;44.634;11.182;2023-01-20T00:35:24;5.30;;;1.83;;
55254;SDS011;41118;44.634;11.182;2023-01-20T00:37:50;3.80;;;1.30;;
55254;SDS011;41118;44.634;11.182;2023-01-20T00:40:17;3.03;;;0.77;;
55254;SDS011;41118;44.634;11.182;2023-01-20T00:42:43;2.13;;;0.88;;
55254;SDS011;41118;44.634;11.182;2023-01-20T00:45:10;3.97;;;0.90;;
55254;SDS011;41118;44.634;11.182;2023-01-20T00:47:37;4.50;;;0.70;;
55254;SDS011;41118;44.634;11.182;2023-01-20T00:50:04;4.95;;;0.60;;
55254;SDS011;41118;44.634;11.182;2023-01-20T00:52:30;2.00;;;0.63;;
55254;SDS011;41118;44.634;11.182;2023-01-20T00:54:56;1.30;;;0.30;;
55254;SDS011;41118;44.634;11.182;2023-01-20T00:57:22;3.28;;;0.52;;
55254;SDS011;41118;44.634;11.182;2023-01-20T00:59:49;1.85;;;0.52;;
55254;SDS011;41118;44.634;11.182;2023-01-20T01:02:15;2.05;;;0.65;;
55254;SDS011;41118;44.634;11.182;2023-01-20T01:04:42;2.95;;;0.35;;
55254;SDS011;41118;44.634;11.182;2023-01-20T01:07:08;2.13;;;0.50;;
55254;SDS011;41118;44.634;11.182;2023-01-20T01:09:34;2.80;;;0.50;;
55254;SDS011;41118;44.634;11.182;2023-01-20T01:12:01;2.08;;;0.40;;
55254;SDS011;41118;44.634;11.182;2023-01-20T01:14:29;1.63;;;0.60;;
55254;SDS011;41118;44.634;11.182;2023-01-20T01:16:55;1.58;;;0.45;;
55254;SDS011;41118;44.634;11.182;2023-01-20T01:19:21;2.33;;;0.50;;
55254;SDS011;41118;44.634;11.182;2023-01-20T01:21:47;1.73;;;0.38;;
55254;SDS011;41118;44.634;11.182;2023-01-20T01:24:13;1.13;;;0.57;;
55254;SDS011;41118;44.634;11.182;2023-01-20T01:26:39;1.70;;;0.50;;
55254;SDS011;41118;44.634;11.182;2023-01-20T01:29:06;1.98;;;0.50;;
55254;SDS011;41118;44.634;11.182;2023-01-20T01:31:32;2.88;;;0.55;;
55254;SDS011;41118;44.634;11.182;2023-01-20T01:33:58;1.50;;;0.47;;
55254;SDS011;41118;44.634;11.182;2023-01-20T01:36:24;1.90;;;0.50;;
55254;SDS011;41118;44.634;11.182;2023-01-20T01:38:50;2.88;;;0.80;;
55254;SDS011;41118;44.634;11.182;2023-01-20T01:41:16;2.65;;;0.60;;
55254;SDS011;41118;44.634;11.182;2023-01-20T01:43:59;2.95;;;0.47;;
55254;SDS011;41118;44.634;11.182;2023-01-20T01:46:25;2.25;;;0.70;;
55254;SDS011;41118;44.634;11.182;2023-01-20T01:48:51;2.22;;;0.43;;
55254;SDS011;41118;44.634;11.182;2023-01-20T01:51:20;1.42;;;0.45;;
55254;SDS011;41118;44.634;11.182;2023-01-20T01:53:49;2.88;;;0.68;;
55254;SDS011;41118;44.634;11.182;2023-01-20T01:56:18;1.60;;;0.40;;
55254;SDS011;41118;44.634;11.182;2023-01-20T01:58:45;2.17;;;0.82;;
55254;SDS011;41118;44.634;11.182;2023-01-20T02:01:13;2.55;;;0.50;;
55254;SDS011;41118;44.634;11.182;2023-01-20T02:04:02;2.10;;;0.77;;
55254;SDS011;41118;44.634;11.182;2023-01-20T02:06:26;2.00;;;0.70;;
55254;SDS011;41118;44.634;11.182;2023-01-20T02:08:52;3.67;;;0.88;;
55254;SDS011;41118;44.634;11.182;2023-01-20T02:11:19;1.77;;;0.60;;
55254;SDS011;41118;44.634;11.182;2023-01-20T02:13:45;2.55;;;0.60;;
55254;SDS011;41118;44.634;11.182;2023-01-20T02:21:47;3.08;;;0.80;;
55254;SDS011;41118;44.634;11.182;2023-01-20T02:37:16;3.67;;;0.80;;
55254;SDS011;41118;44.634;11.182;2023-01-20T02:42:37;3.55;;;0.68;;
55254;SDS011;41118;44.634;11.182;2023-01-20T02:52:44;2.00;;;0.55;;
55254;SDS011;41118;44.634;11.182;2023-01-20T02:55:12;2.60;;;1.08;;
55254;SDS011;41118;44.634;11.182;2023-01-20T02:57:43;4.22;;;1.23;;
55254;SDS011;41118;44.634;11.182;2023-01-20T03:00:12;4.43;;;0.70;;
55254;SDS011;41118;44.634;11.182;2023-01-20T03:02:40;5.20;;;2.15;;
55254;SDS011;41118;44.634;11.182;2023-01-20T03:05:12;5.75;;;1.08;;
55254;SDS011;41118;44.634;11.182;2023-01-20T03:07:40;4.65;;;1.65;;
55254;SDS011;41118;44.634;11.182;2023-01-20T03:10:09;4.55;;;0.70;;
55254;SDS011;41118;44.634;11.182;2023-01-20T03:12:57;2.67;;;0.63;;
55254;SDS011;41118;44.634;11.182;2023-01-20T03:15:24;2.80;;;0.60;;
55254;SDS011;41118;44.634;11.182;2023-01-20T03:17:54;3.25;;;0.50;;
55254;SDS011;41118;44.634;11.182;2023-01-20T03:20:20;3.15;;;1.23;;
55254;SDS011;41118;44.634;11.182;2023-01-20T03:22:46;3.78;;;1.60;;
55254;SDS011;41118;44.634;11.182;2023-01-20T03:25:14;3.17;;;0.70;;
55254;SDS011;41118;44.634;11.182;2023-01-20T03:27:41;3.40;;;0.82;;
55254;SDS011;41118;44.634;11.182;2023-01-20T03:30:16;4.90;;;0.75;;
55254;SDS011;41118;44.634;11.182;2023-01-20T03:32:43;3.13;;;0.90;;
55254;SDS011;41118;44.634;11.182;2023-01-20T03:35:11;2.65;;;0.88;;
55254;SDS011;41118;44.634;11.182;2023-01-20T03:37:38;2.20;;;0.60;;
55254;SDS011;41118;44.634;11.182;2023-01-20T03:40:04;3.90;;;1.20;;
55254;SDS011;41118;44.634;11.182;2023-01-20T03:42:33;2.50;;;0.75;;
55254;SDS011;41118;44.634;11.182;2023-01-20T03:52:43;3.22;;;0.73;;
55254;SDS011;41118;44.634;11.182;2023-01-20T03:57:41;4.32;;;1.05;;
55254;SDS011;41118;44.634;11.182;2023-01-20T04:00:08;3.38;;;0.55;;
55254;SDS011;41118;44.634;11.182;2023-01-20T04:02:35;2.70;;;0.63;;
55254;SDS011;41118;44.634;11.182;2023-01-20T04:05:02;5.43;;;0.80;;
55254;SDS011;41118;44.634;11.182;2023-01-20T04:07:29;3.90;;;0.75;;
55254;SDS011;41118;44.634;11.182;2023-01-20T04:09:57;5.57;;;1.67;;
55254;SDS011;41118;44.634;11.182;2023-01-20T04:12:25;4.45;;;0.73;;
55254;SDS011;41118;44.634;11.182;2023-01-20T04:14:51;4.30;;;1.20;;
55254;SDS011;41118;44.634;11.182;2023-01-20T04:17:17;5.65;;;0.90;;
55254;SDS011;41118;44.634;11.182;2023-01-20T04:19:43;4.57;;;1.10;;
55254;SDS011;41118;44.634;11.182;2023-01-20T04:22:17;5.10;;;1.23;;
55254;SDS011;41118;44.634;11.182;2023-01-20T04:27:13;5.47;;;1.73;;
55254;SDS011;41118;44.634;11.182;2023-01-20T04:29:40;5.47;;;1.20;;
55254;SDS011;41118;44.634;11.182;2023-01-20T04:32:08;2.50;;;0.28;;
55254;SDS011;41118;44.634;11.182;2023-01-20T04:34:35;8.85;;;3.17;;
55254;SDS011;41118;44.634;11.182;2023-01-20T04:37:01;9.48;;;1.85;;
55254;SDS011;41118;44.634;11.182;2023-01-20T04:39:27;6.68;;;2.33;;
55254;SDS011;41118;44.634;11.182;2023-01-20T04:41:54;5.75;;;1.80;;
55254;SDS011;41118;44.634;11.182;2023-01-20T04:44:20;5.50;;;1.35;;
55254;SDS011;41118;44.634;11.182;2023-01-20T04:46:46;6.20;;;1.65;;
55254;SDS011;41118;44.634;11.182;2023-01-20T04:49:12;6.50;;;2.28;;
55254;SDS011;41118;44.634;11.182;2023-01-20T04:51:38;10.82;;;3.83;;
55254;SDS011;41118;44.634;11.182;2023-01-20T04:54:05;8.77;;;2.92;;
55254;SDS011;41118;44.634;11.182;2023-01-20T04:56:31;6.85;;;1.48;;
55254;SDS011;41118;44.634;11.182;2023-01-20T04:58:58;7.28;;;1.65;;
55254;SDS011;41118;44.634;11.182;2023-01-20T05:01:24;12.23;;;4.72;;
55254;SDS011;41118;44.634;11.182;2023-01-20T05:03:50;7.75;;;1.52;;
55254;SDS011;41118;44.634;11.182;2023-01-20T05:06:16;12.30;;;4.25;;
55254;SDS011;41118;44.634;11.182;2023-01-20T05:08:43;8.85;;;4.45;;
55254;SDS011;41118;44.634;11.182;2023-01-20T05:11:09;6.78;;;1.77;;
55254;SDS011;41118;44.634;11.182;2023-01-20T05:13:35;9.80;;;3.42;;
55254;SDS011;41118;44.634;11.182;2023-01-20T05:16:04;6.90;;;2.17;;
55254;SDS011;41118;44.634;11.182;2023-01-20T05:18:30;8.93;;;3.08;;
55254;SDS011;41118;44.634;11.182;2023-01-20T05:20:57;10.15;;;2.67;;
55254;SDS011;41118;44.634;11.182;2023-01-20T05:23:24;8.10;;;1.67;;
55254;SDS011;41118;44.634;11.182;2023-01-20T05:25:51;7.43;;;2.78;;
55254;SDS011;41118;44.634;11.182;2023-01-20T05:28:18;9.35;;;2.25;;
55254;SDS011;41118;44.634;11.182;2023-01-20T05:30:45;6.65;;;1.77;;
55254;SDS011;41118;44.634;11.182;2023-01-20T05:33:12;7.95;;;2.33;;
55254;SDS011;41118;44.634;11.182;2023-01-20T05:35:39;11.00;;;3.95;;
55254;SDS011;41118;44.634;11.182;2023-01-20T05:38:05;8.63;;;4.05;;
55254;SDS011;41118;44.634;11.182;2023-01-20T05:40:31;6.97;;;0.93;;
55254;SDS011;41118;44.634;11.182;2023-01-20T05:42:58;10.05;;;2.67;;
55254;SDS011;41118;44.634;11.182;2023-01-20T05:45:25;11.02;;;4.05;;
55254;SDS011;41118;44.634;11.182;2023-01-20T05:47:54;6.55;;;3.10;;
55254;SDS011;41118;44.634;11.182;2023-01-20T05:50:21;8.38;;;1.75;;
55254;SDS011;41118;44.634;11.182;2023-01-20T05:52:47;6.38;;;2.65;;
55254;SDS011;41118;44.634;11.182;2023-01-20T05:55:13;9.60;;;3.08;;
55254;SDS011;41118;44.634;11.182;2023-01-20T05:57:40;6.90;;;2.15;;
55254;SDS011;41118;44.634;11.182;2023-01-20T06:00:06;5.15;;;1.00;;
55254;SDS011;41118;44.634;11.182;2023-01-20T06:02:32;6.18;;;2.20;;
55254;SDS011;41118;44.634;11.182;2023-01-20T06:04:59;7.60;;;3.35;;
55254;SDS011;41118;44.634;11.182;2023-01-20T06:07:28;11.02;;;4.18;;
55254;SDS011;41118;44.634;11.182;2023-01-20T06:09:55;8.48;;;2.92;;
55254;SDS011;41118;44.634;11.182;2023-01-20T06:12:21;5.65;;;1.42;;
55254;SDS011;41118;44.634;11.182;2023-01-20T06:14:47;4.50;;;1.40;;
55254;SDS011;41118;44.634;11.182;2023-01-20T06:17:13;3.83;;;1.30;;
55254;SDS011;41118;44.634;11.182;2023-01-20T06:19:39;5.00;;;1.77;;
55254;SDS011;41118;44.634;11.182;2023-01-20T06:22:06;11.43;;;4.35;;
55254;SDS011;41118;44.634;11.182;2023-01-20T06:24:32;8.70;;;2.85;;
55254;SDS011;41118;44.634;11.182;2023-01-20T06:26:59;7.95;;;3.03;;
55254;SDS011;41118;44.634;11.182;2023-01-20T06:29:25;6.25;;;1.48;;
55254;SDS011;41118;44.634;11.182;2023-01-20T06:31:51;8.80;;;3.15;;
55254;SDS011;41118;44.634;11.182;2023-01-20T06:34:17;7.85;;;2.35;;
55254;SDS011;41118;44.634;11.182;2023-01-20T06:36:43;11.82;;;3.75;;
55254;SDS011;41118;44.634;11.182;2023-01-20T06:39:09;11.98;;;4.53;;
55254;SDS011;41118;44.634;11.182;2023-01-20T06:41:35;8.65;;;4.35;;
55254;SDS011;41118;44.634;11.182;2023-01-20T06:44:01;5.60;;;1.30;;
55254;SDS011;41118;44.634;11.182;2023-01-20T06:46:27;7.72;;;1.90;;
55254;SDS011;41118;44.634;11.182;2023-01-20T06:48:53;10.23;;;3.10;;
55254;SDS011;41118;44.634;11.182;2023-01-20T06:51:24;15.20;;;3.97;;
55254;SDS011;41118;44.634;11.182;2023-01-20T06:53:50;12.10;;;2.65;;
55254;SDS011;41118;44.634;11.182;2023-01-20T06:56:16;7.78;;;1.75;;
55254;SDS011;41118;44.634;11.182;2023-01-20T06:58:43;13.05;;;3.55;;
55254;SDS011;41118;44.634;11.182;2023-01-20T07:01:10;13.85;;;4.63;;
55254;SDS011;41118;44.634;11.182;2023-01-20T07:03:36;9.63;;;4.47;;
55254;SDS011;41118;44.634;11.182;2023-01-20T07:06:04;10.38;;;5.97;;
55254;SDS011;41118;44.634;11.182;2023-01-20T07:08:30;9.98;;;3.35;;
55254;SDS011;41118;44.634;11.182;2023-01-20T07:10:56;6.95;;;2.13;;
55254;SDS011;41118;44.634;11.182;2023-01-20T07:13:23;13.88;;;6.60;;
55254;SDS011;41118;44.634;11.182;2023-01-20T07:15:49;10.70;;;3.72;;
55254;SDS011;41118;44.634;11.182;2023-01-20T07:18:15;10.77;;;3.75;;
55254;SDS011;41118;44.634;11.182;2023-01-20T07:20:42;9.93;;;3.55;;
55254;SDS011;41118;44.634;11.182;2023-01-20T07:23:08;14.25;;;4.82;;
55254;SDS011;41118;44.634;11.182;2023-01-20T07:25:34;12.38;;;4.18;;
55254;SDS011;41118;44.634;11.182;2023-01-20T07:28:02;11.20;;;5.10;;
55254;SDS011;41118;44.634;11.182;2023-01-20T07:30:28;11.27;;;3.70;;
55254;SDS011;41118;44.634;11.182;2023-01-20T07:32:55;12.82;;;4.60;;
55254;SDS011;41118;44.634;11.182;2023-01-20T07:35:21;7.53;;;2.22;;
55254;SDS011;41118;44.634;11.182;2023-01-20T07:37:47;12.73;;;5.43;;
55254;SDS011;41118;44.634;11.182;2023-01-20T07:40:13;11.05;;;4.28;;
55254;SDS011;41118;44.634;11.182;2023-01-20T07:42:39;17.00;;;6.15;;
55254;SDS011;41118;44.634;11.182;2023-01-20T07:45:06;10.50;;;3.70;;
55254;SDS011;41118;44.634;11.182;2023-01-20T07:47:32;14.30;;;5.03;;
55254;SDS011;41118;44.634;11.182;2023-01-20T07:49:59;11.25;;;2.72;;
55254;SDS011;41118;44.634;11.182;2023-01-20T07:52:25;10.95;;;3.85;;
55254;SDS011;41118;44.634;11.182;2023-01-20T07:54:51;10.40;;;3.95;;
55254;SDS011;41118;44.634;11.182;2023-01-20T07:57:17;15.68;;;6.65;;
55254;SDS011;41118;44.634;11.182;2023-01-20T07:59:43;6.57;;;2.17;;
55254;SDS011;41118;44.634;11.182;2023-01-20T08:02:09;5.55;;;0.93;;
55254;SDS011;41118;44.634;11.182;2023-01-20T08:04:36;15.15;;;6.25;;
55254;SDS011;41118;44.634;11.182;2023-01-20T08:07:02;15.00;;;5.05;;
55254;SDS011;41118;44.634;11.182;2023-01-20T08:09:28;15.52;;;3.35;;
55254;SDS011;41118;44.634;11.182;2023-01-20T08:11:55;12.88;;;3.90;;
55254;SDS011;41118;44.634;11.182;2023-01-20T08:14:21;13.75;;;4.90;;
55254;SDS011;41118;44.634;11.182;2023-01-20T08:16:48;12.45;;;4.70;;
55254;SDS011;41118;44.634;11.182;2023-01-20T08:19:14;12.85;;;4.57;;
55254;SDS011;41118;44.634;11.182;2023-01-20T08:21:40;13.05;;;6.22;;
55254;SDS011;41118;44.634;11.182;2023-01-20T08:24:06;13.68;;;5.28;;
55254;SDS011;41118;44.634;11.182;2023-01-20T08:26:32;12.48;;;5.03;;
55254;SDS011;41118;44.634;11.182;2023-01-20T08:29:05;14.55;;;4.80;;
55254;SDS011;41118;44.634;11.182;2023-01-20T08:31:31;10.00;;;4.05;;
55254;SDS011;41118;44.634;11.182;2023-01-20T08:33:58;11.90;;;4.38;;
55254;SDS011;41118;44.634;11.182;2023-01-20T08:36:25;15.60;;;3.92;;
55254;SDS011;41118;44.634;11.182;2023-01-20T08:38:53;11.02;;;3.78;;
55254;SDS011;41118;44.634;11.182;2023-01-20T08:41:21;15.27;;;5.78;;
55254;SDS011;41118;44.634;11.182;2023-01-20T08:43:48;5.57;;;0.98;;
55254;SDS011;41118;44.634;11.182;2023-01-20T08:46:15;17.73;;;6.50;;
55254;SDS011;41118;44.634;11.182;2023-01-20T08:48:42;10.80;;;3.30;;
55254;SDS011;41118;44.634;11.182;2023-01-20T08:51:16;11.73;;;2.83;;
55254;SDS011;41118;44.634;11.182;2023-01-20T08:53:43;12.82;;;4.05;;
55254;SDS011;41118;44.634;11.182;2023-01-20T08:56:10;9.90;;;3.33;;
55254;SDS011;41118;44.634;11.182;2023-01-20T08:58:36;10.90;;;5.15;;
55254;SDS011;41118;44.634;11.182;2023-01-20T09:01:13;7.13;;;3.35;;
55254;SDS011;41118;44.634;11.182;2023-01-20T09:03:39;13.63;;;5.43;;
55254;SDS011;41118;44.634;11.182;2023-01-20T09:06:05;11.20;;;4.60;;
55254;SDS011;41118;44.634;11.182;2023-01-20T09:08:32;8.40;;;3.22;;
55254;SDS011;41118;44.634;11.182;2023-01-20T09:11:02;15.70;;;5.32;;
55254;SDS011;41118;44.634;11.182;2023-01-20T09:13:28;9.73;;;3.33;;
55254;SDS011;41118;44.634;11.182;2023-01-20T09:15:56;7.22;;;1.80;;
55254;SDS011;41118;44.634;11.182;2023-01-20T09:18:23;9.48;;;4.20;;
55254;SDS011;41118;44.634;11.182;2023-01-20T09:20:49;9.85;;;3.85;;
55254;SDS011;41118;44.634;11.182;2023-01-20T09:23:15;9.48;;;3.95;;
55254;SDS011;41118;44.634;11.182;2023-01-20T09:25:42;9.85;;;1.67;;
55254;SDS011;41118;44.634;11.182;2023-01-20T09:28:08;15.73;;;5.43;;
55254;SDS011;41118;44.634;11.182;2023-01-20T09:30:34;9.90;;;3.60;;
55254;SDS011;41118;44.634;11.182;2023-01-20T09:33:02;12.13;;;3.42;;
55254;SDS011;41118;44.634;11.182;2023-01-20T09:35:28;12.27;;;5.78;;
55254;SDS011;41118;44.634;11.182;2023-01-20T09:37:54;9.13;;;3.38;;
55254;SDS011;41118;44.634;11.182;2023-01-20T09:48:53;12.40;;;4.47;;
55254;SDS011;41118;44.634;11.182;2023-01-20T09:54:51;8.95;;;2.63;;
55254;SDS011;41118;44.634;11.182;2023-01-20T09:57:20;8.43;;;2.40;;
55254;SDS011;41118;44.634;11.182;2023-01-20T09:59:51;9.15;;;2.85;;
55254;SDS011;41118;44.634;11.182;2023-01-20T10:02:22;13.07;;;4.15;;
55254;SDS011;41118;44.634;11.182;2023-01-20T10:04:56;10.75;;;3.15;;
55254;SDS011;41118;44.634;11.182;2023-01-20T10:07:29;11.68;;;3.15;;
55254;SDS011;41118;44.634;11.182;2023-01-20T10:10:06;7.57;;;3.17;;
55254;SDS011;41118;44.634;11.182;2023-01-20T10:12:55;9.07;;;2.92;;
55254;SDS011;41118;44.634;11.182;2023-01-20T10:25:24;7.68;;;1.98;;
55254;SDS011;41118;44.634;11.182;2023-01-20T10:27:55;6.55;;;2.00;;
55254;SDS011;41118;44.634;11.182;2023-01-20T10:30:24;8.27;;;3.20;;
55254;SDS011;41118;44.634;11.182;2023-01-20T10:32:59;8.50;;;2.47;;
55254;SDS011;41118;44.634;11.182;2023-01-20T10:35:26;10.73;;;4.35;;
55254;SDS011;41118;44.634;11.182;2023-01-20T10:37:53;10.98;;;3.83;;
55254;SDS011;41118;44.634;11.182;2023-01-20T10:42:55;9.80;;;3.15;;
55254;SDS011;41118;44.634;11.182;2023-01-20T10:48:26;8.27;;;3.03;;
55254;SDS011;41118;44.634;11.182;2023-01-20T10:58:37;8.18;;;1.92;;
55254;SDS011;41118;44.634;11.182;2023-01-20T11:01:05;17.20;;;6.50;;
55254;SDS011;41118;44.634;11.182;2023-01-20T11:03:35;8.82;;;2.53;;
55254;SDS011;41118;44.634;11.182;2023-01-20T11:06:02;12.48;;;3.72;;
55254;SDS011;41118;44.634;11.182;2023-01-20T11:08:29;9.25;;;2.92;;
55254;SDS011;41118;44.634;11.182;2023-01-20T11:10:55;13.20;;;4.18;;
55254;SDS011;41118;44.634;11.182;2023-01-20T11:13:22;9.05;;;3.38;;
55254;SDS011;41118;44.634;11.182;2023-01-20T11:15:55;8.07;;;3.63;;
55254;SDS011;41118;44.634;11.182;2023-01-20T11:18:25;12.15;;;4.88;;
55254;SDS011;41118;44.634;11.182;2023-01-20T11:25:56;11.60;;;3.92;;
55254;SDS011;41118;44.634;11.182;2023-01-20T11:28:23;10.57;;;3.88;;
55254;SDS011;41118;44.634;11.182;2023-01-20T11:30:53;11.85;;;4.88;;
55254;SDS011;41118;44.634;11.182;2023-01-20T11:33:21;9.77;;;4.32;;
55254;SDS011;41118;44.634;11.182;2023-01-20T11:38:24;11.20;;;4.25;;
55254;SDS011;41118;44.634;11.182;2023-01-20T11:40:51;12.25;;;4.40;;
55254;SDS011;41118;44.634;11.182;2023-01-20T11:43:31;10.57;;;4.15;;
55254;SDS011;41118;44.634;11.182;2023-01-20T11:46:12;13.10;;;3.80;;
55254;SDS011;41118;44.634;11.182;2023-01-20T11:48:40;10.23;;;4.22;;
55254;SDS011;41118;44.634;11.182;2023-01-20T11:51:17;13.18;;;5.13;;
55254;SDS011;41118;44.634;11.182;2023-01-20T11:53:43;13.00;;;6.22;;
55254;SDS011;41118;44.634;11.182;2023-01-20T11:56:23;11.00;;;4.75;;
55254;SDS011;41118;44.634;11.182;2023-01-20T11:58:57;10.50;;;5.00;;
55254;SDS011;41118;44.634;11.182;2023-01-20T12:02:18;9.05;;;4.50;;
55254;SDS011;41118;44.634;11.182;2023-01-20T12:04:22;13.65;;;5.47;;
55254;SDS011;41118;44.634;11.182;2023-01-20T12:06:52;13.02;;;4.75;;
55254;SDS011;41118;44.634;11.182;2023-01-20T12:09:19;10.00;;;2.83;;
55254;SDS011;41118;44.634;11.182;2023-01-20T12:11:51;11.52;;;3.80;;
55254;SDS011;41118;44.634;11.182;2023-01-20T12:19:32;13.13;;;5.13;;
55254;SDS011;41118;44.634;11.182;2023-01-20T12:22:01;10.85;;;4.13;;
55254;SDS011;41118;44.634;11.182;2023-01-20T12:25:15;12.57;;;5.07;;
55254;SDS011;41118;44.634;11.182;2023-01-20T12:27:32;13.23;;;4.95;;
55254;SDS011;41118;44.634;11.182;2023-01-20T12:29:59;7.72;;;4.13;;
55254;SDS011;41118;44.634;11.182;2023-01-20T12:32:27;15.75;;;5.45;;
55254;SDS011;41118;44.634;11.182;2023-01-20T12:34:55;11.93;;;5.05;;
55254;SDS011;41118;44.634;11.182;2023-01-20T12:37:30;15.70;;;7.00;;
55254;SDS011;41118;44.634;11.182;2023-01-20T12:40:20;6.32;;;1.35;;
55254;SDS011;41118;44.634;11.182;2023-01-20T12:43:11;10.43;;;2.60;;
55254;SDS011;41118;44.634;11.182;2023-01-20T12:45:42;11.75;;;3.33;;
55254;SDS011;41118;44.634;11.182;2023-01-20T12:50:59;5.10;;;2.25;;
55254;SDS011;41118;44.634;11.182;2023-01-20T13:06:37;6.07;;;2.80;;
55254;SDS011;41118;44.634;11.182;2023-01-20T13:14:03;11.38;;;3.90;;
55254;SDS011;41118;44.634;11.182;2023-01-20T13:16:39;10.27;;;2.60;;
55254;SDS011;41118;44.634;11.182;2023-01-20T13:21:32;4.40;;;1.20;;
55254;SDS011;41118;44.634;11.182;2023-01-20T13:23:59;8.10;;;1.77;;
55254;SDS011;41118;44.634;11.182;2023-01-20T13:26:27;7.47;;;1.98;;
55254;SDS011;41118;44.634;11.182;2023-01-20T13:28:54;9.00;;;2.10;;
55254;SDS011;41118;44.634;11.182;2023-01-20T13:32:03;3.20;;;1.05;;
55254;SDS011;41118;44.634;11.182;2023-01-20T13:34:27;5.07;;;2.22;;
55254;SDS011;41118;44.634;11.182;2023-01-20T13:39:39;4.18;;;1.17;;
55254;SDS011;41118;44.634;11.182;2023-01-20T13:45:23;8.10;;;2.13;;
55254;SDS011;41118;44.634;11.182;2023-01-20T13:50:22;5.22;;;1.55;;
55254;SDS011;41118;44.634;11.182;2023-01-20T13:57:59;5.28;;;1.70;;
55254;SDS011;41118;44.634;11.182;2023-01-20T14:00:25;4.72;;;1.02;;
55254;SDS011;41118;44.634;11.182;2023-01-20T14:02:51;5.80;;;2.10;;
55254;SDS011;41118;44.634;11.182;2023-01-20T14:07:47;11.20;;;1.92;;
55254;SDS011;41118;44.634;11.182;2023-01-20T14:10:13;3.95;;;0.90;;
55254;SDS011;41118;44.634;11.182;2023-01-20T14:12:39;5.80;;;1.02;;
55254;SDS011;41118;44.634;11.182;2023-01-20T14:15:05;6.88;;;1.13;;
55254;SDS011;41118;44.634;11.182;2023-01-20T14:17:31;6.97;;;1.60;;
55254;SDS011;41118;44.634;11.182;2023-01-20T14:19:57;6.15;;;1.50;;
55254;SDS011;41118;44.634;11.182;2023-01-20T14:24:51;4.63;;;1.08;;
55254;SDS011;41118;44.634;11.182;2023-01-20T14:29:44;2.30;;;0.50;;
55254;SDS011;41118;44.634;11.182;2023-01-20T14:35:23;5.35;;;0.75;;
55254;SDS011;41118;44.634;11.182;2023-01-20T14:37:51;2.75;;;0.45;;
55254;SDS011;41118;44.634;11.182;2023-01-20T14:42:53;5.30;;;1.05;;
55254;SDS011;41118;44.634;11.182;2023-01-20T14:45:20;3.38;;;0.68;;
55254;SDS011;41118;44.634;11.182;2023-01-20T14:47:47;7.53;;;0.47;;
55254;SDS011;41118;44.634;11.182;2023-01-20T14:50:14;2.58;;;0.57;;
55254;SDS011;41118;44.634;11.182;2023-01-20T14:52:40;3.42;;;0.50;;
55254;SDS011;41118;44.634;11.182;2023-01-20T15:02:48;4.03;;;0.80;;
55254;SDS011;41118;44.634;11.182;2023-01-20T15:10:38;5.88;;;1.02;;
55254;SDS011;41118;44.634;11.182;2023-01-20T15:13:18;6.45;;;1.80;;
55254;SDS011;41118;44.634;11.182;2023-01-20T15:15:45;10.07;;;1.48;;
55254;SDS011;41118;44.634;11.182;2023-01-20T15:18:19;6.30;;;1.85;;
55254;SDS011;41118;44.634;11.182;2023-01-20T15:20:47;5.90;;;1.00;;
55254;SDS011;41118;44.634;11.182;2023-01-20T15:23:29;9.63;;;1.50;;
55254;SDS011;41118;44.634;11.182;2023-01-20T15:26:05;6.80;;;1.00;;
55254;SDS011;41118;44.634;11.182;2023-01-20T15:28:34;3.50;;;1.23;;
55254;SDS011;41118;44.634;11.182;2023-01-20T15:31:01;3.67;;;1.27;;
55254;SDS011;41118;44.634;11.182;2023-01-20T15:33:28;9.52;;;2.42;;
55254;SDS011;41118;44.634;11.182;2023-01-20T15:35:55;3.80;;;1.27;;
55254;SDS011;41118;44.634;11.182;2023-01-20T15:38:28;6.50;;;1.65;;
55254;SDS011;41118;44.634;11.182;2023-01-20T15:40:55;6.05;;;0.60;;
55254;SDS011;41118;44.634;11.182;2023-01-20T15:43:21;5.85;;;1.33;;
55254;SDS011;41118;44.634;11.182;2023-01-20T15:45:47;5.95;;;0.98;;
55254;SDS011;41118;44.634;11.182;2023-01-20T15:48:17;8.90;;;1.65;;
55254;SDS011;41118;44.634;11.182;2023-01-20T15:50:45;6.55;;;1.48;;
55254;SDS011;41118;44.634;11.182;2023-01-20T15:53:11;8.43;;;1.83;;
55254;SDS011;41118;44.634;11.182;2023-01-20T15:55:38;10.00;;;2.60;;
55254;SDS011;41118;44.634;11.182;2023-01-20T15:58:14;6.78;;;1.45;;
55254;SDS011;41118;44.634;11.182;2023-01-20T16:00:44;9.57;;;1.45;;
55254;SDS011;41118;44.634;11.182;2023-01-20T16:03:10;8.52;;;2.47;;
55254;SDS011;41118;44.634;11.182;2023-01-20T16:05:36;5.72;;;1.80;;
55254;SDS011;41118;44.634;11.182;2023-01-20T16:08:08;9.95;;;1.88;;
55254;SDS011;41118;44.634;11.182;2023-01-20T16:10:35;5.93;;;2.30;;
55254;SDS011;41118;44.634;11.182;2023-01-20T16:13:01;5.65;;;2.17;;
55254;SDS011;41118;44.634;11.182;2023-01-20T16:15:27;6.90;;;1.52;;
55254;SDS011;41118;44.634;11.182;2023-01-20T16:17:53;6.55;;;1.23;;
55254;SDS011;41118;44.634;11.182;2023-01-20T16:20:20;8.05;;;1.75;;
55254;SDS011;41118;44.634;11.182;2023-01-20T16:22:47;10.38;;;1.50;;
55254;SDS011;41118;44.634;11.182;2023-01-20T16:25:13;2.58;;;1.35;;
55254;SDS011;41118;44.634;11.182;2023-01-20T16:27:40;3.35;;;0.90;;
55254;SDS011;41118;44.634;11.182;2023-01-20T16:30:08;7.55;;;1.83;;
55254;SDS011;41118;44.634;11.182;2023-01-20T16:32:35;7.20;;;1.90;;
55254;SDS011;41118;44.634;11.182;2023-01-20T16:35:01;4.28;;;1.55;;
55254;SDS011;41118;44.634;11.182;2023-01-20T16:37:27;4.57;;;1.02;;
55254;SDS011;41118;44.634;11.182;2023-01-20T16:39:53;7.88;;;1.98;;
55254;SDS011;41118;44.634;11.182;2023-01-20T16:42:19;5.80;;;1.38;;
55254;SDS011;41118;44.634;11.182;2023-01-20T16:44:45;7.88;;;1.45;;
55254;SDS011;41118;44.634;11.182;2023-01-20T16:47:11;3.72;;;1.42;;
55254;SDS011;41118;44.634;11.182;2023-01-20T16:49:37;4.60;;;1.67;;
55254;SDS011;41118;44.634;11.182;2023-01-20T16:52:03;7.50;;;1.98;;
55254;SDS011;41118;44.634;11.182;2023-01-20T16:54:29;6.32;;;1.67;;
55254;SDS011;41118;44.634;11.182;2023-01-20T16:56:55;5.00;;;1.52;;
55254;SDS011;41118;44.634;11.182;2023-01-20T16:59:21;5.75;;;1.30;;
55254;SDS011;41118;44.634;11.182;2023-01-20T17:01:48;5.78;;;1.40;;
55254;SDS011;41118;44.634;11.182;2023-01-20T17:04:14;7.15;;;2.88;;
55254;SDS011;41118;44.634;11.182;2023-01-20T17:06:40;6.15;;;2.53;;
55254;SDS011;41118;44.634;11.182;2023-01-20T17:09:07;5.38;;;1.55;;